Hannover, Germany

11:03 PM CEST on September 04, 2015 (GMT +0200)
Garten im Dorf | | Change Station
CLOSE
Current Station
Personal Weather Station
Location: Langenhagen, NIEDERSACHSEN
Elevation: 180 ft
Nearby Weather Stations

Elev 180 ft 52.45 °N, 9.65 °E | Updated 45 seconds ago

Overcast
Overcast
58.3 °F
Feels Like 58.3 °F
N
2.5
Wind Variable Wind from SW
Gusts 4.9 mph

Today
High -- | Low -- °F
--% Chance of Precip.
Yesterday
High -- | Low -- °F
Precip. -- in
6:36 AM 8:03 PM
Waning Gibbous, 56% visible
Pressure 29.83 in
Visibility 6.2 miles
Clouds Few 3300 ft
Mostly Cloudy 6500 ft
Dew Point 49 °F
Humidity 72%
Rainfall 0.00 in
Snow Depth Not available.
UV 0.0 out of 12
Pollen Not available.
Air Quality Not available.
Flu Activity Not available.
METAR EDDV 042050Z 21012KT 9999 -SHRA FEW033 BKN065 14/09 Q1010 TEMPO 22015G25KT
Pressure 29.83 in
Visibility 6.2 miles
Clouds Few 3300 ft
Mostly Cloudy 6500 ft
Dew Point 49 °F
Humidity 72%
Rainfall 0.00 in
Snow Depth Not available.
UV 0.0 out of 12
Pollen Not available.
Air Quality Not available.
Flu Activity Not available.
METAR EDDV 042050Z 21012KT 9999 -SHRA FEW033 BKN065 14/09 Q1010 TEMPO 22015G25KT

10-Day Weather Forecast

×

Almanac

Astronomy

Sep. 04, 2015 Rise Set
Actual Time
Civil Twilight
Nautical Twilight
Astronomical Twilight
Moon
Length of Visible Light
Length of Day
Tomorrow will be .
, % of the Moon is Illuminated

Today's Extremes

Country Highs Country Lows

Community

WunderPhotos

Upload Photos

1,852,290 photos uploaded!

WunderBlogs® & News

Nearby

Air Quality

  Air Quality AQ Index Pollutant
Not available.

Snow Depth

Station Depth Elevation

Earthquake Activity

City Distance Mag. Time & Date
Minimum magnitude displayed is 2.5.

Coastal Water Temperatures

Place Temperature

Stations

Nearby Weather Stations

Station Location Temp. Windchill Dew Point Humidity Wind Precip. Elev Updated Type